General Juan N Alvarez International Airport
MMAA : rendu visible

Aérodrome :











RETROUVEZ-NOUS SUR...

 
LOGIN :

S'inscrire | Disclaimer

   EN    FR    IT 

 









Légende :    VFR   VFR Marginal   IFR   IFR Intensif   IFR Très Intensif
Visi : 
Plafond : 
>= 8 km
>= 3000ft
5 à 8 km
1000 à 3000 ft
1500m à 5 km
500 à 1000 ft
800 à 1500m
200 à 500 ft
< 800m
< 200 ft
Symboles :   Orages  Brouillard  Fortes neiges  Fortes précipitations  Vent > 20 kt






- Altitude de l'aérodrome : 16 ft
- Code IATA : ACA


MMAA - General Juan N Alvarez International

DERNIER METAR :
  • 272045Z 25009KT 8SM SKC 29/22 A2989 RMK SLP116 57029 964 HZY ISOL CU

METARs EXPIRÉS :
  • 271947Z 25008KT 8SM SKC 29/22 A2992 RMK HZY CU E
  • 271847Z 27009KT 8SM SKC 29/22 A2994 RMK HZY DSNT CU S

TAF TAF MMAA
Valide du 27 à 18h jusqu'au 29 à 00h UTC


271623Z 2718/2824 26010KT P6SM SCT030 TX30/2721Z TN23/2812Z
FM280300 00000KT P6SM OVC030
TEMPO 2812/2816 BKN015
FM281700 23010KT P6SM SCT030 SCT100



MET'MAP, la Météo Aéronautique d'un coup d'oeil ! - Copyright ORBIFLY Décembre 2007 - Disclaimer

ORBIFLY MET'MAP TEAM :

Programmation & Développement : Alexandra Zaïnal
Sur une idée originale de : Baudouin d'Aumeries
Assistance à la programmation : Marc-Olivier Méhu
Soutien technique & logistique : Manuel Goepfert

Contact : metmap@orbifly.com




SOURCES & CREDITS :

   NOAA       Earth
Advisory